Aéroport int. de Victoria, Colombie-Britannique

Conditions des dernières 24 heures

Date / Heure
(HAP)
Conditions Temp
(°F)
Humidité
(%)
Point de rosée
(°F)
Vent
(mph)
Pression (pouces) Visibilité
(miles)
30 octobre 2014
20:00 Généralement nuageux 55 83 50 ONO 2 29.7 30
19:00 Pluie faible 54 87 50 ONO 9 29.7 15
18:00 Pluie 55 95 54 SSE 6 29.7 6
17:00 Pluie faible 56   94 54 SE 12 29.7 7
16:00 Pluie faible 55 94 53 ESE 10 29.7 7
15:00 Pluie faible 56   91 53 ESE 9 29.7 10
14:00 Pluie faible 55 91 52 NE 9 29.7 15
13:00 Pluie faible 55 90 53 ESE 11 29.8 12
12:00 Pluie faible 53 93 51 ESE 4 29.8 20
11:00 Pluie faible 51 96 50 O 5 29.8 6
10:00 Pluie faible 50 97 50 OSO 6 29.8 20
9:00 Généralement nuageux 50 98 49 OSO 4 29.8 30
8:00 Généralement nuageux 49 99 49 SO 3 29.8 30
7:00 Généralement nuageux 49 99 49 ONO 3 29.9 15
6:00 Brume 48 99 48 SO 5 29.9 1
5:00 Brouillard 47 99 47 SO 5 29.9 0.1
4:00 Généralement nuageux 48 98 48 ONO 3 29.9 30
3:00 Partiellement nuageux 47 98 46 ONO 5 30.0 30
2:00 Partiellement nuageux 46   98 45 S 2 30.0 30
1:00 Partiellement nuageux 48 96 47 SO 4 30.0 30
0:00 Généralement nuageux 48 95 47 O 3 30.0 30
29 octobre 2014
23:00 Généralement nuageux 52 90 49 O 4 30.0 30
22:00 Généralement nuageux 53 89 50 calme 30.0 30
21:00 Partiellement nuageux 51 94 49 calme 30.1 30
20:00 Généralement nuageux 53 93 51 calme 30.1 30
N.D. non disponible
↑ température la plus haute
↓ température la plus basse

Si vous désirez plus de données historiques sur les conditions météo, s.v.p. visitez Données climatologiques en ligne.

Date de modification :